createdAt,value
2023-01-22T00:02:05.735Z,98735.69
2023-01-22T00:04:32.387Z,98740.78
2023-01-22T00:06:58.995Z,98737.41
2023-01-22T00:09:25.621Z,98736.50
2023-01-22T00:11:52.274Z,98739.53
2023-01-22T00:14:18.930Z,98742.47
2023-01-22T00:16:45.575Z,98737.41
2023-01-22T00:19:12.215Z,98739.19
2023-01-22T00:21:38.880Z,98743.50
2023-01-22T00:24:05.808Z,98740.00
2023-01-22T00:26:32.437Z,98742.00
2023-01-22T00:28:59.100Z,98746.31
2023-01-22T00:31:25.981Z,98736.38
2023-01-22T00:33:52.663Z,98738.22
2023-01-22T00:36:20.354Z,98747.53
2023-01-22T00:38:47.846Z,98750.34
2023-01-22T00:41:14.885Z,98736.94
2023-01-22T00:43:41.733Z,98740.78
2023-01-22T00:46:09.204Z,98730.69
2023-01-22T00:48:36.295Z,98743.16
2023-01-22T00:51:02.948Z,98735.69
2023-01-22T00:53:29.640Z,98743.97
2023-01-22T00:55:57.850Z,98740.16
2023-01-22T00:58:24.832Z,98748.69
2023-01-22T01:00:51.549Z,98748.69
2023-01-22T01:03:27.407Z,98752.19
2023-01-22T01:05:54.556Z,98749.38
2023-01-22T01:08:21.484Z,98763.22
2023-01-22T01:10:48.070Z,98764.94
2023-01-22T01:13:14.754Z,98761.03
2023-01-22T01:15:41.997Z,98761.84
2023-01-22T01:18:12.969Z,98745.69
2023-01-22T01:20:40.444Z,98749.94
2023-01-22T01:23:07.174Z,98760.28
2023-01-22T01:25:33.763Z,98757.50
2023-01-22T01:28:00.425Z,98752.94
2023-01-22T01:30:27.117Z,98754.38
2023-01-22T01:32:53.714Z,98748.84
2023-01-22T01:35:22.122Z,98755.91
2023-01-22T01:37:49.917Z,98759.94
2023-01-22T01:40:16.936Z,98763.38
2023-01-22T01:42:43.688Z,98772.34
2023-01-22T01:45:28.135Z,98767.09
2023-01-22T01:48:14.742Z,98775.00
2023-01-22T01:50:41.599Z,98772.28
2023-01-22T01:53:08.081Z,98769.69
2023-01-22T01:55:34.592Z,98773.31
2023-01-22T01:58:02.920Z,98770.00
2023-01-22T02:00:31.078Z,98774.41
2023-01-22T02:02:57.586Z,98772.56
2023-01-22T02:05:24.125Z,98780.25
2023-01-22T02:07:50.623Z,98783.81
2023-01-22T02:10:17.299Z,98792.66
2023-01-22T02:12:44.097Z,98787.56
2023-01-22T02:15:10.595Z,98790.06
2023-01-22T02:17:37.087Z,98783.22
2023-01-22T02:20:03.619Z,98790.19
2023-01-22T02:22:30.512Z,98785.81
2023-01-22T02:24:58.063Z,98796.97
2023-01-22T02:27:24.696Z,98790.81
2023-01-22T02:29:51.214Z,98797.97
2023-01-22T02:32:17.693Z,98807.31
2023-01-22T02:34:44.251Z,98806.41
2023-01-22T02:37:10.899Z,98799.84
2023-01-22T02:39:37.426Z,98803.53
2023-01-22T02:42:05.206Z,98810.59
2023-01-22T02:44:31.749Z,98810.59
2023-01-22T02:46:58.234Z,98808.47
2023-01-22T02:49:26.503Z,98802.84
2023-01-22T02:51:53.069Z,98816.06
2023-01-22T02:54:20.676Z,98818.19
2023-01-22T02:56:47.128Z,98820.38
2023-01-22T02:59:13.725Z,98806.88
2023-01-22T03:01:40.961Z,98814.91
2023-01-22T03:04:13.569Z,98823.75
2023-01-22T03:06:41.863Z,98818.66
2023-01-22T03:09:08.651Z,98819.56
2023-01-22T03:11:37.079Z,98821.41
2023-01-22T03:14:26.678Z,98825.03
2023-01-22T03:17:12.022Z,98813.19
2023-01-22T03:19:57.573Z,98831.72
2023-01-22T03:22:24.056Z,98819.72
2023-01-22T03:24:52.624Z,98827.09
2023-01-22T03:27:22.636Z,98816.91
2023-01-22T03:29:49.212Z,98835.47
2023-01-22T03:32:17.261Z,98829.91
2023-01-22T03:34:43.762Z,98825.88
2023-01-22T03:37:12.781Z,98821.75
2023-01-22T03:39:41.485Z,98831.97
2023-01-22T03:42:08.576Z,98838.47
2023-01-22T03:44:35.087Z,98842.38
2023-01-22T03:47:02.498Z,98838.88
2023-01-22T03:49:29.188Z,98843.06
2023-01-22T03:51:55.954Z,98854.25
2023-01-22T03:54:24.608Z,98851.56
2023-01-22T03:56:53.571Z,98852.41
2023-01-22T03:59:26.219Z,98856.91
2023-01-22T04:01:53.788Z,98862.75
2023-01-22T04:04:21.118Z,98868.84
2023-01-22T04:06:47.595Z,98865.78
2023-01-22T04:09:14.302Z,98873.22
2023-01-22T04:11:46.458Z,98874.78
2023-01-22T04:14:14.799Z,98872.94
2023-01-22T04:16:48.193Z,98877.94
2023-01-22T04:19:32.996Z,98876.44
2023-01-22T04:22:02.376Z,98872.31
2023-01-22T04:24:29.259Z,98874.78
2023-01-22T04:26:55.816Z,98880.25
2023-01-22T04:29:22.458Z,98875.00
2023-01-22T04:31:49.861Z,98885.28
2023-01-22T04:34:19.663Z,98896.84
2023-01-22T04:36:54.038Z,98900.78
2023-01-22T04:39:21.629Z,98913.13
2023-01-22T04:41:48.137Z,98913.41
2023-01-22T04:44:14.630Z,98912.53
2023-01-22T04:46:41.916Z,98913.25
2023-01-22T04:49:09.113Z,98927.25
2023-01-22T04:51:35.777Z,98933.59
2023-01-22T04:54:02.514Z,98942.47
2023-01-22T04:56:29.012Z,98942.25
2023-01-22T04:58:55.518Z,98936.03
2023-01-22T05:01:22.118Z,98941.31
2023-01-22T05:03:49.879Z,98945.94
2023-01-22T05:06:16.344Z,98942.66
2023-01-22T05:08:42.900Z,98945.97
2023-01-22T05:11:10.461Z,98948.72
2023-01-22T05:13:42.660Z,98958.28
2023-01-22T05:16:10.085Z,98958.91
2023-01-22T05:18:37.104Z,98966.13
2023-01-22T05:21:03.656Z,98979.31
2023-01-22T05:23:31.629Z,98970.41
2023-01-22T05:25:58.229Z,98971.66
2023-01-22T05:28:37.531Z,98976.63
2023-01-22T05:31:30.040Z,98969.41
2023-01-22T05:34:01.259Z,98981.94
2023-01-22T05:36:29.370Z,98976.25
2023-01-22T05:38:59.998Z,98972.41
2023-01-22T05:41:27.514Z,98969.06
2023-01-22T05:43:55.447Z,98969.91
2023-01-22T05:50:13.798Z,98965.41
2023-01-22T05:52:41.190Z,98961.09
2023-01-22T05:55:08.183Z,98969.34
2023-01-22T05:57:40.885Z,98964.34
2023-01-22T06:00:08.524Z,98960.69
2023-01-22T06:02:42.951Z,98964.34
2023-01-22T06:05:09.705Z,98976.97
2023-01-22T06:07:36.183Z,98974.31
2023-01-22T06:10:03.369Z,98971.94
2023-01-22T06:12:30.148Z,98971.03
2023-01-22T06:14:57.481Z,98967.53
2023-01-22T06:17:23.971Z,98970.00
2023-01-22T06:19:55.093Z,98966.50
2023-01-22T06:22:21.576Z,98964.50
2023-01-22T06:24:54.640Z,98956.78
2023-01-22T06:27:23.924Z,98961.13
2023-01-22T06:29:55.039Z,98961.59
2023-01-22T06:32:21.664Z,98953.56
2023-01-22T06:38:36.157Z,98968.00
2023-01-22T06:41:04.763Z,98973.06
2023-01-22T06:43:32.470Z,98973.00
2023-01-22T06:45:58.943Z,98980.91
2023-01-22T06:48:43.960Z,98980.13
2023-01-22T06:51:10.649Z,98980.97
2023-01-22T06:53:37.559Z,98983.94
2023-01-22T06:56:04.193Z,98986.50
2023-01-22T06:58:30.709Z,98998.84
2023-01-22T07:01:01.041Z,98994.13
2023-01-22T07:03:27.534Z,99000.19
2023-01-22T07:05:57.947Z,98996.75
2023-01-22T07:08:24.421Z,99010.38
2023-01-22T07:10:50.974Z,99018.91
2023-01-22T07:13:18.524Z,99019.09
2023-01-22T07:15:45.068Z,99020.88
2023-01-22T07:18:14.392Z,99023.16
2023-01-22T07:20:42.050Z,99022.34
2023-01-22T07:23:08.822Z,99019.19
2023-01-22T07:25:35.330Z,99027.56
2023-01-22T07:28:01.999Z,99023.16
2023-01-22T07:30:28.839Z,99031.81
2023-01-22T07:32:57.947Z,99027.66
2023-01-22T07:35:24.469Z,99029.34
2023-01-22T07:37:51.498Z,99032.69
2023-01-22T07:40:18.119Z,99033.22
2023-01-22T07:42:44.696Z,99033.22
2023-01-22T07:45:12.394Z,99026.66
2023-01-22T07:47:38.852Z,99038.66
2023-01-22T07:50:05.457Z,99034.28
2023-01-22T07:52:31.949Z,99034.56
2023-01-22T07:54:58.381Z,99030.31
2023-01-22T07:57:24.889Z,99038.00
2023-01-22T07:59:51.345Z,99039.31
2023-01-22T08:02:17.862Z,99041.34
2023-01-22T08:04:44.396Z,99047.44
2023-01-22T08:07:14.331Z,99041.41
2023-01-22T08:09:40.774Z,99049.00
2023-01-22T08:12:07.251Z,99047.47
2023-01-22T08:14:33.727Z,99052.25
2023-01-22T08:17:00.219Z,99051.38
2023-01-22T08:19:29.461Z,99063.19
2023-01-22T08:21:56.096Z,99059.84
2023-01-22T08:24:22.594Z,99061.16
2023-01-22T08:26:49.086Z,99064.03
2023-01-22T08:29:15.613Z,99063.41
2023-01-22T08:31:42.168Z,99065.78
2023-01-22T08:34:08.710Z,99067.25
2023-01-22T08:36:35.192Z,99069.56
2023-01-22T08:39:01.671Z,99076.28
2023-01-22T08:41:28.143Z,99082.19
2023-01-22T08:43:54.618Z,99090.94
2023-01-22T08:46:21.064Z,99093.75
2023-01-22T08:48:48.855Z,99099.28
2023-01-22T08:51:15.531Z,99107.84
2023-01-22T08:53:42.076Z,99105.69
2023-01-22T08:56:08.619Z,99111.50
2023-01-22T08:58:35.091Z,99110.38
2023-01-22T09:01:01.729Z,99111.09
2023-01-22T09:03:28.601Z,99115.56
2023-01-22T09:05:55.911Z,99114.63
2023-01-22T09:08:22.392Z,99122.25
2023-01-22T09:10:48.912Z,99117.22
2023-01-22T09:13:15.422Z,99126.72
2023-01-22T09:15:41.897Z,99123.25
2023-01-22T09:18:08.346Z,99132.59
2023-01-22T09:20:37.875Z,99132.19
2023-01-22T09:26:57.608Z,99141.81
2023-01-22T09:29:24.121Z,99148.66
2023-01-22T09:31:51.212Z,99146.03
2023-01-22T09:34:17.851Z,99149.53
2023-01-22T09:36:45.859Z,99157.91
2023-01-22T09:39:12.334Z,99163.22
2023-01-22T09:41:39.194Z,99173.56
2023-01-22T09:44:17.842Z,99169.94
2023-01-22T09:46:45.662Z,99172.38
2023-01-22T09:49:14.572Z,99171.63
2023-01-22T09:51:41.001Z,99180.72
2023-01-22T09:54:08.804Z,99178.06
2023-01-22T09:56:36.199Z,99178.88
2023-01-22T09:59:03.402Z,99173.72
2023-01-22T10:01:29.990Z,99170.34
2023-01-22T10:03:59.016Z,99182.31
2023-01-22T10:06:25.677Z,99177.06
2023-01-22T10:08:54.206Z,99184.19
2023-01-22T10:11:20.696Z,99186.38
2023-01-22T10:13:47.170Z,99181.97
2023-01-22T10:16:13.748Z,99183.59
2023-01-22T10:18:40.264Z,99188.03
2023-01-22T10:21:10.807Z,99197.78
2023-01-22T10:23:37.289Z,99199.56
2023-01-22T10:26:22.011Z,99197.38
2023-01-22T10:28:49.107Z,99212.59
2023-01-22T10:31:26.432Z,99221.41
2023-01-22T10:33:55.349Z,99220.41
2023-01-22T10:36:21.831Z,99228.56
2023-01-22T10:38:48.280Z,99231.19
2023-01-22T10:41:16.998Z,99231.19
2023-01-22T10:43:43.525Z,99228.97
2023-01-22T10:46:22.361Z,99229.69
2023-01-22T10:48:58.743Z,99220.28
2023-01-22T10:51:27.495Z,99232.03
2023-01-22T10:53:54.659Z,99242.97
2023-01-22T10:56:40.365Z,99256.19
2023-01-22T10:59:23.063Z,99266.72
2023-01-22T11:01:51.309Z,99265.22
2023-01-22T11:04:21.422Z,99276.25
2023-01-22T11:06:49.055Z,99282.59
2023-01-22T11:09:24.010Z,99289.00
2023-01-22T11:11:58.061Z,99290.25
2023-01-22T11:14:29.685Z,99288.09
2023-01-22T11:16:57.112Z,99291.66
2023-01-22T11:19:36.657Z,99298.50
2023-01-22T11:22:03.844Z,99286.06
2023-01-22T11:24:33.160Z,99287.47
2023-01-22T11:27:02.780Z,99298.78
2023-01-22T11:29:48.193Z,99279.75
2023-01-22T11:32:17.653Z,99286.25
2023-01-22T11:34:53.285Z,99286.34
2023-01-22T11:37:21.111Z,99286.47
2023-01-22T11:40:01.138Z,99283.41
2023-01-22T11:42:27.769Z,99287.25
2023-01-22T11:45:00.534Z,99288.16
2023-01-22T11:47:27.042Z,99282.91
2023-01-22T11:49:59.696Z,99285.63
2023-01-22T11:52:33.137Z,99284.84
2023-01-22T11:55:18.478Z,99294.00
2023-01-22T11:58:05.193Z,99291.22
2023-01-22T12:00:31.711Z,99287.34
2023-01-22T12:03:16.986Z,99278.47
2023-01-22T12:06:02.108Z,99277.66
2023-01-22T12:08:40.637Z,99268.56
2023-01-22T12:11:07.124Z,99269.94
2023-01-22T12:13:39.728Z,99275.13
2023-01-22T12:16:12.409Z,99267.16
2023-01-22T12:18:41.915Z,99265.59
2023-01-22T12:21:09.117Z,99258.63
2023-01-22T12:23:58.889Z,99257.50
2023-01-22T12:26:26.254Z,99253.75
2023-01-22T12:29:06.899Z,99257.06
2023-01-22T12:31:34.784Z,99256.59
2023-01-22T12:34:01.885Z,99252.38
2023-01-22T12:36:28.414Z,99252.25
2023-01-22T12:39:01.587Z,99243.81
2023-01-22T12:41:32.121Z,99240.41
2023-01-22T12:44:20.073Z,99247.22
2023-01-22T12:46:52.888Z,99236.88
2023-01-22T12:49:20.887Z,99238.63
2023-01-22T12:51:48.318Z,99240.97
2023-01-22T12:54:18.417Z,99247.56
2023-01-22T12:56:44.885Z,99251.06
2023-01-22T12:59:43.900Z,99254.16
2023-01-22T13:02:24.156Z,99256.81
2023-01-22T13:04:50.721Z,99261.56
2023-01-22T13:07:26.283Z,99272.03
2023-01-22T13:10:01.846Z,99260.31
2023-01-22T13:12:29.215Z,99262.03
2023-01-22T13:14:55.696Z,99262.13
2023-01-22T13:17:23.309Z,99268.06
2023-01-22T13:19:50.563Z,99279.19
2023-01-22T13:22:21.053Z,99274.41
2023-01-22T13:24:51.909Z,99275.84
2023-01-22T13:27:22.979Z,99284.84
2023-01-22T13:29:49.456Z,99295.00
2023-01-22T13:32:16.842Z,99293.81
2023-01-22T13:34:43.333Z,99304.97
2023-01-22T13:37:22.795Z,99306.34
2023-01-22T13:39:49.252Z,99308.72
2023-01-22T13:42:15.859Z,99308.16
2023-01-22T13:44:48.849Z,99304.19
2023-01-22T13:47:34.190Z,99304.28
2023-01-22T13:50:00.768Z,99309.53
2023-01-22T13:52:28.621Z,99314.91
2023-01-22T13:54:58.166Z,99318.91
2023-01-22T13:57:24.854Z,99317.94
2023-01-22T13:59:54.760Z,99322.19
2023-01-22T14:02:24.664Z,99329.13
2023-01-22T14:04:51.271Z,99320.59
2023-01-22T14:07:30.768Z,99309.25
2023-01-22T14:09:59.138Z,99312.69
2023-01-22T14:12:26.818Z,99301.63
2023-01-22T14:14:53.564Z,99300.19
2023-01-22T14:17:28.746Z,99317.31
2023-01-22T14:19:55.869Z,99313.72
2023-01-22T14:22:22.622Z,99308.59
2023-01-22T14:24:52.495Z,99314.84
2023-01-22T14:27:20.319Z,99315.41
2023-01-22T14:29:46.876Z,99317.94
2023-01-22T14:32:13.432Z,99323.88
2023-01-22T14:34:39.924Z,99317.09
2023-01-22T14:37:06.365Z,99320.84
2023-01-22T14:39:33.604Z,99327.19
2023-01-22T14:42:00.417Z,99319.25
2023-01-22T14:44:27.022Z,99326.88
2023-01-22T14:46:53.564Z,99324.47
2023-01-22T14:49:20.253Z,99328.88
2023-01-22T14:51:46.736Z,99334.97
2023-01-22T14:54:13.232Z,99335.06
2023-01-22T14:56:39.662Z,99341.16
2023-01-22T14:59:06.181Z,99344.31
2023-01-22T15:01:32.753Z,99347.91
2023-01-22T15:03:59.592Z,99346.31
2023-01-22T15:06:26.079Z,99352.69
2023-01-22T15:08:52.542Z,99351.88
2023-01-22T15:15:08.854Z,99352.69
2023-01-22T15:17:36.339Z,99348.34
2023-01-22T15:20:04.684Z,99350.16
2023-01-22T15:22:31.165Z,99350.03
2023-01-22T15:24:57.776Z,99356.28
2023-01-22T15:27:24.282Z,99349.44
2023-01-22T15:29:50.737Z,99359.41
2023-01-22T15:32:17.414Z,99366.78
2023-01-22T15:34:43.930Z,99369.09
2023-01-22T15:37:13.664Z,99369.50
2023-01-22T15:39:40.208Z,99376.94
2023-01-22T15:42:06.678Z,99373.78
2023-01-22T15:44:33.165Z,99381.16
2023-01-22T15:47:01.193Z,99378.94
2023-01-22T15:49:27.714Z,99371.09
2023-01-22T15:51:54.463Z,99372.84
2023-01-22T15:54:21.112Z,99375.25
2023-01-22T15:56:47.798Z,99374.22
2023-01-22T15:59:14.433Z,99379.06
2023-01-22T16:01:40.961Z,99380.34
2023-01-22T16:04:08.067Z,99377.13
2023-01-22T16:06:34.727Z,99373.03
2023-01-22T16:09:01.556Z,99365.47
2023-01-22T16:11:28.380Z,99372.19
2023-01-22T16:13:55.136Z,99377.25
2023-01-22T16:16:22.351Z,99369.75
2023-01-22T16:18:49.132Z,99379.38
2023-01-22T16:21:15.953Z,99386.88
2023-01-22T16:23:43.213Z,99381.00
2023-01-22T16:26:10.769Z,99380.63
2023-01-22T16:28:37.494Z,99393.00
2023-01-22T16:31:04.793Z,99391.19
2023-01-22T16:33:31.826Z,99397.69
2023-01-22T16:36:02.211Z,99403.19
2023-01-22T16:38:29.197Z,99409.22
2023-01-22T16:40:58.205Z,99399.50
2023-01-22T16:43:24.697Z,99392.41
2023-01-22T16:45:51.230Z,99402.09
2023-01-22T16:48:17.777Z,99411.28
2023-01-22T16:50:44.305Z,99410.41
2023-01-22T16:53:10.787Z,99400.97
2023-01-22T16:55:37.432Z,99410.19
2023-01-22T16:58:04.520Z,99413.72
2023-01-22T17:00:30.999Z,99413.16
2023-01-22T17:02:59.639Z,99421.50
2023-01-22T17:05:26.127Z,99427.03
2023-01-22T17:07:52.697Z,99429.63
2023-01-22T17:10:19.415Z,99429.75
2023-01-22T17:12:46.081Z,99442.69
2023-01-22T17:15:12.902Z,99441.00
2023-01-22T17:17:39.915Z,99432.47
2023-01-22T17:20:06.607Z,99437.84
2023-01-22T17:22:34.469Z,99438.28
2023-01-22T17:25:00.921Z,99450.50
2023-01-22T17:27:27.465Z,99449.78
2023-01-22T17:29:54.144Z,99463.25
2023-01-22T17:32:22.461Z,99453.94
2023-01-22T17:34:49.015Z,99462.59
2023-01-22T17:37:15.501Z,99463.13
2023-01-22T17:39:43.098Z,99469.16
2023-01-22T17:42:09.696Z,99464.22
2023-01-22T17:44:36.221Z,99454.53
2023-01-22T17:47:02.815Z,99457.00
2023-01-22T17:49:30.095Z,99461.22
2023-01-22T17:51:57.063Z,99464.78
2023-01-22T17:54:23.768Z,99478.03
2023-01-22T17:56:53.120Z,99466.59
2023-01-22T17:59:20.334Z,99470.78
2023-01-22T18:01:46.925Z,99477.91
2023-01-22T18:04:13.511Z,99473.38
2023-01-22T18:06:40.721Z,99482.25
2023-01-22T18:09:07.571Z,99476.69
2023-01-22T18:11:34.161Z,99479.19
2023-01-22T18:14:01.634Z,99476.59
2023-01-22T18:16:29.516Z,99483.22
2023-01-22T18:18:59.591Z,99484.66
2023-01-22T18:21:26.071Z,99482.94
2023-01-22T18:23:52.657Z,99481.31
2023-01-22T18:26:26.656Z,99484.66
2023-01-22T18:28:54.414Z,99494.97
2023-01-22T18:31:25.428Z,99499.78
2023-01-22T18:33:52.184Z,99498.31
2023-01-22T18:36:21.824Z,99504.09
2023-01-22T18:38:48.457Z,99496.47
2023-01-22T18:41:16.100Z,99499.47
2023-01-22T18:43:42.888Z,99508.00
2023-01-22T18:46:10.344Z,99511.41
2023-01-22T18:48:36.920Z,99512.72
2023-01-22T18:51:03.516Z,99524.75
2023-01-22T18:53:30.930Z,99526.44
2023-01-22T18:56:00.483Z,99532.56
2023-01-22T18:58:46.031Z,99537.72
2023-01-22T19:01:15.250Z,99534.28
2023-01-22T19:03:42.046Z,99534.38
2023-01-22T19:06:16.116Z,99540.25
2023-01-22T19:08:42.772Z,99541.59
2023-01-22T19:11:09.336Z,99545.03
2023-01-22T19:13:35.977Z,99544.81
2023-01-22T19:16:03.416Z,99545.63
2023-01-22T19:18:30.019Z,99547.47
2023-01-22T19:21:01.162Z,99542.19
2023-01-22T19:23:27.741Z,99552.03
2023-01-22T19:25:57.079Z,99547.34
2023-01-22T19:28:23.592Z,99547.53
2023-01-22T19:30:50.146Z,99547.34
2023-01-22T19:33:16.626Z,99547.47
2023-01-22T19:35:49.235Z,99550.84
2023-01-22T19:38:16.047Z,99551.78
2023-01-22T19:40:45.612Z,99548.56
2023-01-22T19:43:12.205Z,99556.38
2023-01-22T19:45:38.722Z,99560.28
2023-01-22T19:48:07.099Z,99559.63
2023-01-22T19:50:33.887Z,99563.22
2023-01-22T19:53:00.589Z,99559.63
2023-01-22T19:55:27.084Z,99561.38
2023-01-22T19:57:55.235Z,99565.47
2023-01-22T20:00:22.138Z,99567.44
2023-01-22T20:02:48.644Z,99566.78
2023-01-22T20:05:40.331Z,99570.22
2023-01-22T20:08:07.214Z,99565.81
2023-01-22T20:10:33.740Z,99568.41
2023-01-22T20:13:00.421Z,99567.44
2023-01-22T20:15:27.258Z,99565.91
2023-01-22T20:17:54.513Z,99576.09
2023-01-22T20:20:22.405Z,99578.75
2023-01-22T20:22:49.265Z,99575.50
2023-01-22T20:25:15.813Z,99572.75
2023-01-22T20:27:42.326Z,99580.34
2023-01-22T20:30:09.140Z,99581.34
2023-01-22T20:32:35.760Z,99580.44
2023-01-22T20:35:02.278Z,99580.50
2023-01-22T20:37:28.863Z,99584.81
2023-01-22T20:39:55.419Z,99584.81
2023-01-22T20:42:21.955Z,99585.84
2023-01-22T20:44:48.610Z,99596.19
2023-01-22T20:47:15.070Z,99589.22
2023-01-22T20:49:41.558Z,99590.94
2023-01-22T20:52:08.039Z,99602.09
2023-01-22T20:54:36.975Z,99602.88
2023-01-22T20:57:09.181Z,99609.69
2023-01-22T20:59:35.695Z,99604.38
2023-01-22T21:02:02.462Z,99605.38
2023-01-22T21:04:28.984Z,99613.97
2023-01-22T21:06:56.529Z,99623.28
2023-01-22T21:09:23.022Z,99614.47
2023-01-22T21:11:49.492Z,99624.97
2023-01-22T21:14:16.915Z,99623.28
2023-01-22T21:16:44.492Z,99627.69
2023-01-22T21:19:15.756Z,99630.25
2023-01-22T21:21:42.224Z,99635.13
2023-01-22T21:24:08.760Z,99640.59
2023-01-22T21:26:35.317Z,99640.59
2023-01-22T21:29:02.929Z,99642.16
2023-01-22T21:31:29.521Z,99639.72
2023-01-22T21:34:02.456Z,99643.03
2023-01-22T21:36:30.067Z,99649.75
2023-01-22T21:38:56.971Z,99648.94
2023-01-22T21:41:23.424Z,99655.66
2023-01-22T21:44:08.537Z,99665.22
2023-01-22T21:46:35.888Z,99665.88
2023-01-22T21:49:16.129Z,99668.56
2023-01-22T21:51:44.136Z,99670.16
2023-01-22T21:54:11.096Z,99676.53
2023-01-22T21:56:37.595Z,99672.44
2023-01-22T21:59:04.119Z,99672.13
2023-01-22T22:01:32.002Z,99670.63
2023-01-22T22:04:02.186Z,99667.22
2023-01-22T22:06:29.790Z,99666.34
2023-01-22T22:08:56.500Z,99669.06
2023-01-22T22:11:22.943Z,99669.81
2023-01-22T22:13:49.523Z,99665.53
2023-01-22T22:16:16.022Z,99674.91
2023-01-22T22:18:42.568Z,99680.06
2023-01-22T22:21:09.135Z,99683.47
2023-01-22T22:23:36.545Z,99684.91
2023-01-22T22:26:03.683Z,99697.06
2023-01-22T22:28:30.194Z,99701.22
2023-01-22T22:31:03.973Z,99702.63
2023-01-22T22:33:30.471Z,99707.03
2023-01-22T22:35:56.903Z,99708.88
2023-01-22T22:38:23.379Z,99711.56
2023-01-22T22:41:19.474Z,99706.69
2023-01-22T22:43:46.942Z,99705.94
2023-01-22T22:46:32.394Z,99705.84
2023-01-22T22:49:00.251Z,99703.19
2023-01-22T22:51:30.290Z,99713.25
2023-01-22T22:53:58.279Z,99713.25
2023-01-22T22:56:25.305Z,99720.03
2023-01-22T22:58:51.810Z,99725.06
2023-01-22T23:01:19.189Z,99727.09
2023-01-22T23:03:45.771Z,99723.69
2023-01-22T23:06:13.075Z,99723.84
2023-01-22T23:08:40.231Z,99717.75
2023-01-22T23:11:08.877Z,99720.19
2023-01-22T23:13:35.382Z,99714.41
2023-01-22T23:16:02.461Z,99712.09
2023-01-22T23:18:29.121Z,99706.28
2023-01-22T23:20:55.803Z,99715.50
2023-01-22T23:23:22.288Z,99723.00
2023-01-22T23:25:48.831Z,99724.88
2023-01-22T23:28:15.324Z,99727.09
2023-01-22T23:30:41.954Z,99723.06
2023-01-22T23:33:08.482Z,99718.66
2023-01-22T23:35:34.998Z,99726.31
2023-01-22T23:38:01.569Z,99730.66
2023-01-22T23:40:28.061Z,99728.44
2023-01-22T23:42:54.613Z,99728.31
2023-01-22T23:45:21.059Z,99719.94
2023-01-22T23:47:47.551Z,99724.13
2023-01-22T23:50:14.061Z,99726.88
2023-01-22T23:52:40.672Z,99720.84
2023-01-22T23:55:07.245Z,99721.59
2023-01-22T23:57:33.779Z,99738.63
